Aviation Digital Data Service (ADDS)

Output produced by METARs form (2114 UTC 20 August 2019)
found at http://www.aviationweather.gov/metar/data/
 
Forecast for: OIIE (IMAM KHOMEINI , IR)
Text: TAF OIIE 201730Z 2018/2124 30010KT CAVOK
Forecast period: 1800 UTC 20 August 2019 to 0600 UTC 21 August 2019
Forecast type: FROM: standard forecast or significant change
Winds: from the WNW (300 degrees) at 12 MPH (10 knots; 5.1 m/s)
Visibility: 6 or more miles 10+ km)
Ceiling: unknown
Clouds: missing
Weather: NSW  (no significant weather)
Text: BECMG 2106/2108 14008KT
Forecast period: 0600 to 1700 UTC 21 August 2019
Forecast type: BECOMING: Conditions expected to become as follows by 0800 UTC 21 August 2019
Winds: from the SE (140 degrees) at 9 MPH (8 knots; 4.1 m/s)
Visibility: 6 or more miles 10+ km)
Ceiling: unknown
Clouds: missing
Weather: NSW  (no significant weather)
Text: BECMG 2117/2119 30010KT
Forecast period: 1700 UTC 21 August 2019 to 0000 UTC 22 August 2019
Forecast type: BECOMING: Conditions expected to become as follows by 1900 UTC 21 August 2019
Winds: from the WNW (300 degrees) at 12 MPH (10 knots; 5.1 m/s)
Visibility: 6 or more miles 10+ km)
Ceiling: unknown
Clouds: missing
Weather: NSW  (no significant weather)